Time;durP1;ratioP1;P1;durP2;ratioP2;P2;SDS_P1;SDS_P2;PMS_P1;PMS_P2;Temp;Humidity;BMP_temperature;BMP_pressure;BME280_temperature;BME280_humidity;BME280_pressure;Samples;Min_cycle;Max_cycle;Signal;HPM_P1;HPM_P2
2022/12/12 00:01:28;;;;;;;33.43;17.33;;;-0.50;1.00;;;;;;4983265;28;21004;-57
2022/12/12 00:03:54;;;;;;;32.43;16.70;;;-0.30;1.00;;;;;;4987706;28;20493;-58
2022/12/12 00:06:20;;;;;;;33.80;16.07;;;-0.20;1.00;;;;;;4987516;28;20455;-57
2022/12/12 00:08:46;;;;;;;33.20;16.43;;;-0.20;1.00;;;;;;4980147;28;20476;-57
2022/12/12 00:11:12;;;;;;;32.77;17.87;;;-0.20;1.00;;;;;;4968763;28;20456;-58
2022/12/12 00:13:38;;;;;;;30.40;15.93;;;-0.30;1.00;;;;;;4983966;28;20196;-58
2022/12/12 00:16:07;;;;;;;28.00;14.50;;;-0.30;1.00;;;;;;4984122;28;20188;-58
2022/12/12 00:18:35;;;;;;;36.20;16.50;;;-0.20;1.00;;;;;;4975821;28;20446;-58
2022/12/12 00:21:02;;;;;;;27.37;14.97;;;-0.10;1.00;;;;;;4975858;28;20588;-57
2022/12/12 00:23:27;;;;;;;27.73;14.37;;;-0.40;1.00;;;;;;4984167;28;20449;-59
2022/12/12 00:25:59;;;;;;;30.83;15.17;;;-0.10;1.00;;;;;;4989511;28;20429;-57
2022/12/12 00:28:26;;;;;;;25.27;14.67;;;-0.10;1.00;;;;;;4986390;28;20319;-60
2022/12/12 00:30:51;;;;;;;30.50;16.10;;;-0.10;1.00;;;;;;4987891;28;20457;-58
2022/12/12 00:33:17;;;;;;;29.33;14.90;;;-0.10;1.00;;;;;;4981164;28;20960;-58
2022/12/12 00:35:44;;;;;;;26.50;14.83;;;-0.20;1.00;;;;;;4975204;28;20185;-57
2022/12/12 00:38:10;;;;;;;28.00;13.47;;;-0.10;1.00;;;;;;4974715;28;20751;-59
2022/12/12 00:40:36;;;;;;;30.87;15.97;;;-0.20;1.00;;;;;;4978030;28;20804;-56
2022/12/12 00:43:02;;;;;;;25.03;13.83;;;-0.20;1.00;;;;;;4975423;28;20455;-58
2022/12/12 00:45:27;;;;;;;26.03;13.20;;;-0.10;1.00;;;;;;4975382;28;22629;-57
2022/12/12 00:47:53;;;;;;;30.63;14.40;;;0.00;1.00;;;;;;4980024;28;20482;-57
2022/12/12 00:50:19;;;;;;;26.30;13.60;;;0.00;1.00;;;;;;4986512;28;20666;-58
2022/12/12 00:52:44;;;;;;;29.10;14.73;;;0.00;1.00;;;;;;4991020;28;20228;-58
2022/12/12 00:55:13;;;;;;;28.70;15.13;;;0.10;1.00;;;;;;4987424;28;20279;-57
2022/12/12 00:57:39;;;;;;;39.73;16.60;;;0.10;1.00;;;;;;4984462;28;20294;-57
2022/12/12 01:00:07;;;;;;;26.33;13.93;;;0.10;1.00;;;;;;4986232;28;20479;-58
2022/12/12 01:02:33;;;;;;;26.70;16.20;;;-0.10;1.00;;;;;;4980926;28;20203;-58
2022/12/12 01:04:59;;;;;;;32.33;16.10;;;0.00;1.00;;;;;;4988698;28;20454;-56
2022/12/12 01:07:24;;;;;;;26.57;15.20;;;0.10;1.00;;;;;;4986950;28;20465;-59
2022/12/12 01:09:50;;;;;;;32.53;15.97;;;0.10;1.00;;;;;;4983192;28;20204;-58
2022/12/12 01:12:15;;;;;;;25.30;13.00;;;0.00;1.00;;;;;;4989500;28;20574;-58
2022/12/12 01:14:41;;;;;;;28.57;15.13;;;0.00;1.00;;;;;;4974369;28;20196;-56
2022/12/12 01:17:07;;;;;;;31.27;15.30;;;0.10;1.00;;;;;;4983389;28;20250;-57
2022/12/12 01:19:32;;;;;;;26.17;14.30;;;0.10;1.00;;;;;;4992447;28;20559;-57
2022/12/12 01:21:58;;;;;;;32.00;17.10;;;0.10;1.00;;;;;;4963089;28;20242;-59
2022/12/12 01:24:24;;;;;;;30.27;15.27;;;0.10;1.00;;;;;;4981990;28;20694;-57
2022/12/12 01:26:50;;;;;;;29.53;14.60;;;0.00;1.00;;;;;;4979498;28;20333;-58
2022/12/12 01:29:15;;;;;;;31.20;16.67;;;0.00;1.00;;;;;;4979148;28;20301;-56
2022/12/12 01:31:41;;;;;;;30.40;15.73;;;2.40;1.00;;;;;;4980697;28;20530;-57
2022/12/12 01:34:07;;;;;;;30.10;17.20;;;0.20;1.00;;;;;;4981829;28;20730;-56
2022/12/12 01:36:32;;;;;;;26.23;14.87;;;0.20;1.00;;;;;;4978136;28;20278;-57
2022/12/12 01:38:59;;;;;;;24.73;13.60;;;0.10;1.00;;;;;;4980043;28;21470;-57
2022/12/12 01:41:25;;;;;;;33.53;16.60;;;0.10;1.00;;;;;;4980501;28;20502;-58
2022/12/12 01:43:52;;;;;;;28.43;14.37;;;0.00;1.00;;;;;;4977738;28;20451;-57
2022/12/12 01:46:29;;;;;;;25.00;13.77;;;0.00;1.00;;;;;;4982200;28;20505;-57
2022/12/12 01:49:12;;;;;;;24.97;14.00;;;0.10;1.00;;;;;;4979100;28;20526;-56
2022/12/12 01:51:38;;;;;;;34.37;15.73;;;0.20;1.00;;;;;;4980631;28;20451;-57
2022/12/12 01:54:08;;;;;;;27.70;14.37;;;0.10;1.00;;;;;;4992880;28;20451;-57
2022/12/12 01:56:36;;;;;;;27.73;14.83;;;0.10;1.00;;;;;;4988770;28;20952;-57
2022/12/12 01:59:04;;;;;;;28.23;15.53;;;0.10;1.00;;;;;;4988577;28;21047;-57
2022/12/12 02:01:30;;;;;;;28.43;15.70;;;0.00;1.00;;;;;;4986545;28;20451;-58
2022/12/12 02:03:58;;;;;;;25.03;14.00;;;-0.10;1.00;;;;;;4990586;28;20462;-57
2022/12/12 02:06:26;;;;;;;25.03;12.90;;;-0.10;1.00;;;;;;4992095;28;20462;-57
2022/12/12 02:08:54;;;;;;;30.53;15.33;;;0.00;1.00;;;;;;4989700;28;20490;-56
2022/12/12 02:11:20;;;;;;;30.43;14.67;;;0.00;1.00;;;;;;5006236;28;22148;-57
2022/12/12 02:13:47;;;;;;;28.07;15.43;;;0.10;1.00;;;;;;5003719;28;20524;-56
2022/12/12 02:16:51;;;;;;;28.90;15.77;;;0.00;1.00;;;;;;4983655;28;20928;-57
2022/12/12 02:19:28;;;;;;;32.23;16.07;;;0.00;1.00;;;;;;4990092;28;20814;-57
2022/12/12 02:22:03;;;;;;;30.97;16.00;;;-0.10;1.00;;;;;;4989209;28;20457;-56
2022/12/12 02:24:42;;;;;;;33.07;16.20;;;-0.20;1.00;;;;;;4987060;28;20960;-58
2022/12/12 02:27:34;;;;;;;30.47;16.73;;;-0.10;1.00;;;;;;4987422;28;20455;-58
2022/12/12 02:30:39;;;;;;;29.80;15.40;;;-0.10;1.00;;;;;;4998943;28;20470;-57
2022/12/12 02:33:19;;;;;;;32.43;14.87;;;-0.10;1.00;;;;;;4929888;28;20957;-57
2022/12/12 02:35:57;;;;;;;31.57;17.43;;;-0.10;1.00;;;;;;4988695;28;20435;-57
2022/12/12 02:38:39;;;;;;;32.07;16.57;;;-0.10;1.00;;;;;;4990227;28;20458;-57
2022/12/12 02:41:07;;;;;;;29.73;13.90;;;-0.10;1.00;;;;;;4988579;28;20484;-57
2022/12/12 02:43:51;;;;;;;28.13;16.47;;;-0.10;1.00;;;;;;4967906;28;20462;-57
2022/12/12 02:46:23;;;;;;;33.60;16.33;;;-0.20;1.00;;;;;;4997408;28;20524;-58
2022/12/12 02:49:02;;;;;;;30.77;15.20;;;-0.10;1.00;;;;;;4989614;28;20521;-59
2022/12/12 02:51:29;;;;;;;36.60;16.57;;;-0.10;1.00;;;;;;4987566;28;20530;-58
2022/12/12 02:53:58;;;;;;;29.97;15.40;;;-0.30;1.00;;;;;;4986506;28;20451;-57
2022/12/12 02:56:52;;;;;;;31.50;15.10;;;-0.20;1.00;;;;;;4981562;28;20473;-57
2022/12/12 02:59:32;;;;;;;34.53;16.27;;;-0.20;1.00;;;;;;4984063;28;20659;-57
2022/12/12 03:02:13;;;;;;;28.60;15.97;;;-0.20;1.00;;;;;;4981926;28;20482;-57
2022/12/12 03:07:48;;;;;;;34.00;15.60;;;-0.20;1.00;;;;;;4989064;28;20500;-57
2022/12/12 03:10:18;;;;;;;40.97;18.00;;;-0.20;1.00;;;;;;4984917;28;20450;-57
2022/12/12 03:12:59;;;;;;;36.00;17.00;;;-0.20;1.00;;;;;;4983085;28;20521;-56
2022/12/12 03:15:46;;;;;;;32.33;16.03;;;-0.20;1.00;;;;;;4987390;28;20449;-56
2022/12/12 03:18:20;;;;;;;32.00;16.20;;;-0.20;1.00;;;;;;4988123;28;20492;-58
2022/12/12 03:20:52;;;;;;;28.87;15.23;;;-0.20;1.00;;;;;;4988348;28;21043;-57
2022/12/12 03:23:26;;;;;;;33.30;17.37;;;-0.20;1.00;;;;;;4980303;28;20464;-57
2022/12/12 03:26:00;;;;;;;35.53;19.47;;;-0.20;1.00;;;;;;4986352;28;20466;-57
2022/12/12 03:28:26;;;;;;;29.07;16.50;;;-0.20;1.00;;;;;;4984973;28;20511;-58
2022/12/12 03:30:56;;;;;;;35.10;16.70;;;-0.10;1.00;;;;;;4983216;28;20513;-58
2022/12/12 03:33:44;;;;;;;36.03;19.00;;;-0.10;1.00;;;;;;4985881;28;20236;-58
2022/12/12 03:36:16;;;;;;;26.93;15.37;;;-0.10;1.00;;;;;;4989682;28;21030;-58
2022/12/12 03:38:55;;;;;;;30.07;16.17;;;0.00;1.00;;;;;;4984904;28;20443;-57
2022/12/12 03:41:24;;;;;;;31.43;18.40;;;-0.10;1.00;;;;;;4994767;28;21003;-58
2022/12/12 03:44:00;;;;;;;35.70;17.33;;;-0.10;1.00;;;;;;4981103;28;20481;-58
2022/12/12 03:46:31;;;;;;;32.60;17.77;;;0.10;1.00;;;;;;4969604;28;20625;-58
2022/12/12 03:49:11;;;;;;;30.07;15.00;;;0.20;1.00;;;;;;4983572;28;20520;-56
2022/12/12 03:51:41;;;;;;;29.37;16.03;;;0.20;1.00;;;;;;4983265;28;20820;-58
2022/12/12 03:54:34;;;;;;;32.80;17.10;;;0.10;1.00;;;;;;4986249;28;20687;-57
2022/12/12 03:57:05;;;;;;;30.20;15.30;;;0.10;1.00;;;;;;4984241;28;20466;-57
2022/12/12 03:59:34;;;;;;;33.30;18.57;;;0.30;1.00;;;;;;4986899;28;20598;-57
2022/12/12 04:02:18;;;;;;;32.77;17.47;;;0.30;1.00;;;;;;4982427;28;20530;-57
2022/12/12 04:05:09;;;;;;;32.60;17.93;;;0.30;1.00;;;;;;4978666;28;20451;-57
2022/12/12 04:07:44;;;;;;;32.87;17.23;;;0.20;1.00;;;;;;4989395;28;21026;-58
2022/12/12 04:13:12;;;;;;;31.53;16.87;;;0.20;1.00;;;;;;4937334;28;20478;-56
2022/12/12 04:16:02;;;;;;;28.53;14.27;;;0.20;1.00;;;;;;4980511;28;20460;-57
2022/12/12 04:18:53;;;;;;;30.00;14.83;;;0.20;1.00;;;;;;4986032;28;20439;-56
2022/12/12 04:24:41;;;;;;;28.80;15.43;;;0.00;1.00;;;;;;4973225;28;20531;-57
2022/12/12 04:27:31;;;;;;;31.30;16.33;;;0.00;1.00;;;;;;4955217;28;20451;-57
2022/12/12 04:30:04;;;;;;;29.90;16.47;;;0.00;1.00;;;;;;4974102;28;20451;-57
2022/12/12 04:32:35;;;;;;;29.30;14.90;;;0.00;1.00;;;;;;4972617;28;20448;-56
2022/12/12 04:35:17;;;;;;;25.70;14.73;;;0.20;1.00;;;;;;4974696;28;20447;-57
2022/12/12 04:37:55;;;;;;;22.17;13.47;;;0.10;1.00;;;;;;4972586;28;20457;-57
2022/12/12 04:40:27;;;;;;;30.10;13.73;;;0.10;1.00;;;;;;4972352;28;20463;-58
2022/12/12 04:43:02;;;;;;;33.67;15.67;;;0.00;1.00;;;;;;4971558;28;20452;-56
2022/12/12 04:45:33;;;;;;;27.90;15.20;;;-0.10;1.00;;;;;;4976856;28;20454;-57
2022/12/12 04:48:00;;;;;;;29.43;16.83;;;0.00;1.00;;;;;;4973881;28;20985;-56
2022/12/12 04:50:28;;;;;;;34.60;16.87;;;0.00;1.00;;;;;;4972456;28;20451;-57
2022/12/12 04:52:56;;;;;;;29.60;15.17;;;-0.10;1.00;;;;;;4987022;28;20455;-58
2022/12/12 04:55:26;;;;;;;28.00;13.23;;;-0.20;1.00;;;;;;4985611;28;20447;-56
2022/12/12 04:57:54;;;;;;;30.70;15.67;;;-0.20;1.00;;;;;;4982894;28;20462;-56
2022/12/12 05:00:21;;;;;;;32.97;15.43;;;-0.10;1.00;;;;;;4993597;28;21022;-57
2022/12/12 05:02:58;;;;;;;31.70;15.37;;;-0.10;1.00;;;;;;4984838;28;20451;-57
2022/12/12 05:05:49;;;;;;;29.43;16.00;;;0.00;1.00;;;;;;4979439;28;20953;-56
2022/12/12 05:08:29;;;;;;;30.40;16.63;;;0.00;1.00;;;;;;4983015;28;20853;-58
2022/12/12 05:11:00;;;;;;;32.53;15.77;;;0.00;1.00;;;;;;4984956;28;20479;-57
2022/12/12 05:13:34;;;;;;;31.80;16.97;;;0.00;1.00;;;;;;4988104;28;20550;-58
2022/12/12 05:16:02;;;;;;;34.00;17.63;;;0.00;1.00;;;;;;4984713;28;20502;-57
2022/12/12 05:18:29;;;;;;;30.87;14.40;;;-0.10;1.00;;;;;;4970298;28;20955;-58
2022/12/12 05:20:55;;;;;;;33.13;17.13;;;-0.10;1.00;;;;;;4987448;28;20466;-55
2022/12/12 05:23:20;;;;;;;32.93;16.93;;;-0.10;1.00;;;;;;4985773;28;20477;-55
2022/12/12 05:25:46;;;;;;;38.60;19.47;;;-0.10;1.00;;;;;;4969199;28;20224;-54
2022/12/12 05:28:12;;;;;;;33.80;16.73;;;-0.10;1.00;;;;;;4986807;28;20266;-55
2022/12/12 05:30:38;;;;;;;33.70;16.60;;;-0.20;1.00;;;;;;4985252;28;20318;-56
2022/12/12 05:33:03;;;;;;;35.73;16.93;;;-0.20;1.00;;;;;;4987377;28;20263;-55
2022/12/12 05:35:29;;;;;;;33.27;18.00;;;-0.20;1.00;;;;;;4985311;28;20481;-54
2022/12/12 05:37:55;;;;;;;33.33;17.30;;;-0.10;1.00;;;;;;4987986;28;20247;-56
2022/12/12 05:40:21;;;;;;;37.03;17.20;;;-0.10;1.00;;;;;;4987897;28;20189;-57
2022/12/12 05:42:47;;;;;;;33.03;17.17;;;-0.10;1.00;;;;;;4986571;28;20984;-56
2022/12/12 05:45:13;;;;;;;31.40;18.10;;;-0.10;1.00;;;;;;4987490;28;20462;-56
2022/12/12 05:47:38;;;;;;;33.90;18.50;;;-0.10;1.00;;;;;;4986613;28;20232;-55
2022/12/12 05:50:05;;;;;;;32.23;17.13;;;-0.10;1.00;;;;;;4974808;28;20538;-56
2022/12/12 05:52:31;;;;;;;39.10;18.33;;;-0.10;1.00;;;;;;4988955;28;20239;-57
2022/12/12 05:54:57;;;;;;;36.10;18.10;;;-0.10;1.00;;;;;;4990990;28;20490;-55
2022/12/12 05:57:22;;;;;;;29.27;16.90;;;0.00;1.00;;;;;;4973687;28;20496;-56
2022/12/12 05:59:48;;;;;;;33.73;19.07;;;-0.10;1.00;;;;;;4991367;28;20629;-55
2022/12/12 06:02:15;;;;;;;32.27;17.63;;;-0.10;1.00;;;;;;4991740;28;20207;-56
2022/12/12 06:04:41;;;;;;;31.50;17.53;;;-0.20;1.00;;;;;;4987915;28;20200;-56
2022/12/12 06:07:07;;;;;;;31.43;16.20;;;-0.20;1.00;;;;;;4983932;28;20451;-56
2022/12/12 06:09:33;;;;;;;38.97;18.57;;;-0.10;1.00;;;;;;4989804;28;20491;-56
2022/12/12 06:11:59;;;;;;;34.77;16.67;;;-0.20;1.00;;;;;;4994955;28;20462;-56
2022/12/12 06:14:25;;;;;;;30.63;15.50;;;-0.30;1.00;;;;;;4987771;28;20498;-56
2022/12/12 06:16:51;;;;;;;28.97;17.43;;;-0.30;1.00;;;;;;4988450;28;20186;-56
2022/12/12 06:19:20;;;;;;;28.13;16.80;;;-0.30;1.00;;;;;;4989175;28;20462;-57
2022/12/12 06:21:46;;;;;;;37.63;20.13;;;-0.30;1.00;;;;;;4988830;28;20485;-57
2022/12/12 06:24:12;;;;;;;37.03;19.20;;;-0.30;1.00;;;;;;4990611;28;20510;-56
2022/12/12 06:26:37;;;;;;;33.27;17.00;;;-0.20;1.00;;;;;;4991247;28;20246;-57
2022/12/12 06:29:03;;;;;;;31.47;16.87;;;-0.10;1.00;;;;;;4990226;28;20230;-56
2022/12/12 06:31:29;;;;;;;33.47;17.30;;;-0.10;1.00;;;;;;4987614;28;20192;-57
2022/12/12 06:33:55;;;;;;;29.30;18.30;;;-0.10;1.00;;;;;;4988288;28;20948;-57
2022/12/12 06:36:23;;;;;;;34.97;17.70;;;0.00;1.00;;;;;;4987460;28;20283;-56
2022/12/12 06:38:54;;;;;;;28.00;15.77;;;0.10;1.00;;;;;;4987634;28;20967;-58
2022/12/12 06:41:21;;;;;;;31.40;18.03;;;-0.10;1.00;;;;;;4990146;28;20502;-56
2022/12/12 06:43:47;;;;;;;33.13;17.67;;;0.00;1.00;;;;;;5003599;28;20905;-56
2022/12/12 06:46:18;;;;;;;32.60;17.33;;;0.00;1.00;;;;;;4997358;28;20559;-57
2022/12/12 06:48:44;;;;;;;30.87;15.83;;;0.10;1.00;;;;;;4988803;28;20551;-56
2022/12/12 06:51:15;;;;;;;30.07;16.00;;;0.10;1.00;;;;;;4989915;28;20505;-57
2022/12/12 06:53:41;;;;;;;36.33;17.57;;;0.00;1.00;;;;;;4987049;28;20452;-57
2022/12/12 06:56:08;;;;;;;29.83;16.47;;;0.00;1.00;;;;;;4987523;28;21030;-57
2022/12/12 06:58:34;;;;;;;30.70;17.40;;;0.00;1.00;;;;;;4987697;28;20255;-57
2022/12/12 07:01:00;;;;;;;30.33;16.57;;;0.00;1.00;;;;;;4990612;28;20494;-57
2022/12/12 07:03:26;;;;;;;26.73;15.57;;;-0.10;1.00;;;;;;4991812;28;20471;-57
2022/12/12 07:05:51;;;;;;;30.47;18.00;;;0.00;1.00;;;;;;4993128;28;20219;-57
2022/12/12 07:08:17;;;;;;;32.30;18.03;;;0.00;1.00;;;;;;4990858;28;20254;-57
2022/12/12 07:10:43;;;;;;;30.13;16.73;;;0.10;1.00;;;;;;4987978;28;20519;-56
2022/12/12 07:13:10;;;;;;;37.77;19.33;;;0.20;1.00;;;;;;4988946;28;20198;-56
2022/12/12 07:15:43;;;;;;;34.70;18.67;;;0.30;1.00;;;;;;4988834;28;20212;-56
2022/12/12 07:18:08;;;;;;;28.87;17.70;;;0.30;1.00;;;;;;4991555;28;20439;-56
2022/12/12 07:20:40;;;;;;;33.73;16.70;;;0.20;1.00;;;;;;4990238;28;20854;-58
2022/12/12 07:23:08;;;;;;;32.47;18.00;;;0.20;1.00;;;;;;4988533;28;20234;-56
2022/12/12 07:25:36;;;;;;;27.80;16.63;;;0.20;1.00;;;;;;4987927;28;20502;-57
2022/12/12 07:28:02;;;;;;;34.63;18.47;;;0.30;1.00;;;;;;4988694;28;20534;-57
2022/12/12 07:30:28;;;;;;;33.63;19.30;;;0.30;1.00;;;;;;4988887;28;20456;-57
2022/12/12 07:32:53;;;;;;;34.87;18.40;;;0.30;1.00;;;;;;4990149;28;20190;-57
2022/12/12 07:35:19;;;;;;;31.20;18.70;;;0.30;1.00;;;;;;4990190;28;20186;-57
2022/12/12 07:37:44;;;;;;;34.33;18.83;;;0.20;1.00;;;;;;4985733;28;20578;-57
2022/12/12 07:40:11;;;;;;;34.17;19.67;;;0.10;1.00;;;;;;4988053;28;20283;-56
2022/12/12 07:42:36;;;;;;;29.57;18.43;;;0.20;1.00;;;;;;4986872;28;20245;-56
2022/12/12 07:45:02;;;;;;;34.90;19.13;;;0.30;1.00;;;;;;4987567;28;20923;-57
2022/12/12 07:47:28;;;;;;;31.80;17.83;;;0.30;1.00;;;;;;4988985;28;20225;-56
2022/12/12 07:49:54;;;;;;;32.40;16.63;;;0.40;1.00;;;;;;4995227;28;20524;-56
2022/12/12 07:52:20;;;;;;;33.67;17.87;;;0.30;1.00;;;;;;4994776;28;20192;-57
2022/12/12 07:54:46;;;;;;;32.43;18.37;;;0.90;1.00;;;;;;4986865;28;20189;-56
2022/12/12 07:57:11;;;;;;;32.17;19.40;;;0.30;1.00;;;;;;4984675;28;20570;-57
2022/12/12 07:59:37;;;;;;;28.20;17.07;;;0.40;1.00;;;;;;4989025;28;20214;-56
2022/12/12 08:02:03;;;;;;;28.17;16.83;;;0.30;1.00;;;;;;4988535;28;20719;-57
2022/12/12 08:04:29;;;;;;;31.37;18.13;;;0.30;1.00;;;;;;4990594;28;20196;-56
2022/12/12 08:06:56;;;;;;;29.50;16.13;;;0.30;1.00;;;;;;4988895;28;20375;-58
2022/12/12 08:09:22;;;;;;;32.23;16.70;;;0.20;1.00;;;;;;4989289;28;20727;-56
2022/12/12 08:11:47;;;;;;;32.00;18.70;;;0.20;1.00;;;;;;4984270;28;20464;-56
2022/12/12 08:14:13;;;;;;;24.43;15.30;;;0.30;1.00;;;;;;4988196;28;20450;-57
2022/12/12 08:16:39;;;;;;;29.43;17.57;;;0.30;1.00;;;;;;4989126;28;20225;-57
2022/12/12 08:19:05;;;;;;;28.27;16.20;;;0.30;1.00;;;;;;4999483;28;20200;-57
2022/12/12 08:21:31;;;;;;;33.77;18.47;;;0.30;1.00;;;;;;4987346;28;20447;-57
2022/12/12 08:23:58;;;;;;;27.63;15.67;;;0.50;1.00;;;;;;4988143;28;20342;-57
2022/12/12 08:26:25;;;;;;;24.67;14.97;;;0.60;1.00;;;;;;4984007;28;20276;-57
2022/12/12 08:28:51;;;;;;;28.20;14.93;;;0.50;1.00;;;;;;4984254;28;20476;-58
2022/12/12 08:31:17;;;;;;;22.80;13.47;;;0.60;1.00;;;;;;4989015;28;20447;-56
2022/12/12 08:33:43;;;;;;;29.10;15.47;;;0.70;1.00;;;;;;4990182;28;20782;-57
2022/12/12 08:36:31;;;;;;;27.43;15.37;;;0.70;1.00;;;;;;4990125;28;20602;-56
2022/12/12 08:39:08;;;;;;;25.20;16.30;;;0.80;1.00;;;;;;4988893;28;20443;-57
2022/12/12 08:41:36;;;;;;;25.53;14.90;;;0.50;1.00;;;;;;4986955;28;20451;-57
2022/12/12 08:44:02;;;;;;;25.37;13.37;;;0.40;1.00;;;;;;4988026;28;20451;-56
2022/12/12 08:46:27;;;;;;;26.13;14.63;;;0.40;1.00;;;;;;4994329;28;20967;-58
2022/12/12 08:48:53;;;;;;;24.77;16.40;;;0.40;1.00;;;;;;4989579;28;20240;-57
2022/12/12 08:51:19;;;;;;;26.93;15.47;;;0.50;1.00;;;;;;5003219;28;20187;-57
2022/12/12 08:53:47;;;;;;;37.63;16.03;;;0.60;1.00;;;;;;5009836;28;20203;-58
2022/12/12 08:56:13;;;;;;;22.57;13.50;;;0.60;1.00;;;;;;4995950;28;20921;-57
2022/12/12 08:58:39;;;;;;;24.43;15.03;;;0.50;1.00;;;;;;4989245;28;20439;-56
2022/12/12 09:01:16;;;;;;;21.40;12.93;;;2.10;1.00;;;;;;4986031;28;20499;-56
2022/12/12 09:03:42;;;;;;;26.23;16.33;;;0.40;1.00;;;;;;4988532;28;20207;-57
2022/12/12 09:06:09;;;;;;;23.90;16.00;;;0.50;1.00;;;;;;4986638;28;20572;-57
2022/12/12 09:08:35;;;;;;;28.43;16.60;;;0.00;1.00;;;;;;4987438;28;20221;-57
2022/12/12 09:11:01;;;;;;;26.83;16.07;;;0.40;1.00;;;;;;4971484;28;20451;-57
2022/12/12 09:13:27;;;;;;;26.70;16.33;;;0.50;1.00;;;;;;4987006;28;20461;-56
2022/12/12 09:15:52;;;;;;;25.77;15.00;;;0.60;1.00;;;;;;4987739;28;20553;-57
2022/12/12 09:18:19;;;;;;;27.57;16.27;;;0.60;1.00;;;;;;4987835;28;20215;-56
2022/12/12 09:21:03;;;;;;;27.07;15.90;;;0.50;1.00;;;;;;4988079;28;20195;-57
2022/12/12 09:23:29;;;;;;;25.83;13.80;;;0.60;1.00;;;;;;4991394;28;20453;-56
2022/12/12 09:25:54;;;;;;;30.23;16.97;;;0.70;1.00;;;;;;4991689;28;20936;-57
2022/12/12 09:28:22;;;;;;;22.80;13.60;;;0.70;1.00;;;;;;4989574;28;20213;-57
2022/12/12 09:30:49;;;;;;;22.43;13.93;;;0.40;1.00;;;;;;4989145;28;20675;-57
2022/12/12 09:33:15;;;;;;;26.77;14.80;;;0.40;1.00;;;;;;4991440;28;20446;-56
2022/12/12 09:35:41;;;;;;;22.23;13.67;;;0.40;1.00;;;;;;4990862;28;20459;-57
2022/12/12 09:38:07;;;;;;;23.80;13.70;;;0.40;1.00;;;;;;4992142;28;20447;-57
2022/12/12 09:40:52;;;;;;;21.63;14.27;;;0.50;1.00;;;;;;4994845;28;20498;-56
2022/12/12 09:43:22;;;;;;;20.33;13.50;;;0.50;1.00;;;;;;5008501;28;20932;-57
2022/12/12 09:45:48;;;;;;;26.50;15.70;;;0.60;1.00;;;;;;4989900;28;20502;-56
2022/12/12 09:48:37;;;;;;;23.07;15.20;;;0.60;1.00;;;;;;4993204;28;20846;-56
2022/12/12 09:51:03;;;;;;;21.30;13.67;;;0.60;1.00;;;;;;4988819;28;20443;-56
2022/12/12 09:53:29;;;;;;;27.50;14.83;;;0.50;1.00;;;;;;4991124;28;20455;-57
2022/12/12 09:56:11;;;;;;;25.13;15.97;;;0.60;1.00;;;;;;4988701;28;20962;-56
2022/12/12 09:59:06;;;;;;;20.83;13.30;;;0.70;1.00;;;;;;4991210;28;21004;-57
2022/12/12 10:01:47;;;;;;;22.07;14.20;;;0.80;1.00;;;;;;4990609;28;20443;-56
2022/12/12 10:04:39;;;;;;;23.90;13.87;;;1.00;1.00;;;;;;4990331;28;20446;-57
2022/12/12 10:07:40;;;;;;;24.00;13.07;;;1.30;1.00;;;;;;4999805;28;20569;-56
2022/12/12 10:10:24;;;;;;;23.47;15.00;;;1.00;1.00;;;;;;4997099;28;20456;-57
2022/12/12 10:12:52;;;;;;;22.87;14.27;;;0.70;1.00;;;;;;4992263;28;20450;-57
2022/12/12 10:15:32;;;;;;;34.20;17.80;;;0.80;1.00;;;;;;4992400;28;20443;-58
2022/12/12 10:18:01;;;;;;;26.20;14.60;;;0.80;1.00;;;;;;4974224;28;20466;-56
2022/12/12 10:20:31;;;;;;;29.60;16.37;;;0.70;1.00;;;;;;4987418;28;20831;-58
2022/12/12 10:23:15;;;;;;;20.07;12.73;;;0.70;1.00;;;;;;4988998;28;20452;-57
2022/12/12 10:25:49;;;;;;;21.00;13.90;;;0.70;1.00;;;;;;4991430;28;20447;-58
2022/12/12 10:28:17;;;;;;;24.50;13.70;;;0.80;1.00;;;;;;4987433;28;20957;-59
2022/12/12 10:31:10;;;;;;;24.77;17.00;;;0.90;1.00;;;;;;4989129;28;20464;-57
2022/12/12 10:34:00;;;;;;;28.80;16.00;;;1.10;1.00;;;;;;4988527;28;20470;-58
2022/12/12 10:36:51;;;;;;;24.20;14.70;;;1.10;1.00;;;;;;5001341;28;20483;-57
2022/12/12 10:39:35;;;;;;;24.83;14.20;;;0.90;1.00;;;;;;4990031;28;20504;-58
2022/12/12 10:42:26;;;;;;;20.47;13.53;;;0.90;1.00;;;;;;4985873;28;20557;-58
2022/12/12 10:45:23;;;;;;;22.63;13.30;;;0.90;1.00;;;;;;4990384;28;20526;-57
2022/12/12 10:47:49;;;;;;;26.07;16.77;;;1.00;1.00;;;;;;4996798;28;20477;-58
2022/12/12 10:50:31;;;;;;;28.53;14.83;;;1.10;1.00;;;;;;5001190;28;20470;-58
2022/12/12 10:52:56;;;;;;;24.30;12.80;;;1.00;1.00;;;;;;5002600;28;20438;-58
2022/12/12 10:55:47;;;;;;;22.07;13.90;;;1.00;1.00;;;;;;4993844;28;20442;-57
2022/12/12 10:58:15;;;;;;;26.20;13.87;;;0.90;1.00;;;;;;4990017;28;20193;-58
2022/12/12 11:00:44;;;;;;;25.80;14.60;;;0.80;1.00;;;;;;4991647;28;20476;-58
2022/12/12 11:03:27;;;;;;;23.23;14.90;;;0.80;1.00;;;;;;4991554;28;20426;-59
2022/12/12 11:05:55;;;;;;;25.80;16.00;;;0.80;1.00;;;;;;4990922;28;20435;-58
2022/12/12 11:08:28;;;;;;;22.90;14.53;;;0.70;1.00;;;;;;4982201;28;20466;-57
2022/12/12 11:10:58;;;;;;;26.40;15.60;;;0.80;1.00;;;;;;5010758;28;21007;-57
2022/12/12 11:13:24;;;;;;;25.23;14.50;;;1.00;1.00;;;;;;5004817;28;20789;-57
2022/12/12 11:16:06;;;;;;;25.47;13.30;;;1.00;1.00;;;;;;4991529;28;20451;-57
2022/12/12 11:18:32;;;;;;;27.03;14.60;;;1.00;1.00;;;;;;4991496;28;20207;-59
2022/12/12 11:21:04;;;;;;;23.03;14.07;;;1.10;1.00;;;;;;4991356;28;20451;-58
2022/12/12 11:23:31;;;;;;;25.80;14.80;;;1.00;1.00;;;;;;4971844;28;20211;-56
2022/12/12 11:26:01;;;;;;;21.90;14.10;;;1.00;1.00;;;;;;4990921;28;20819;-58
2022/12/12 11:28:31;;;;;;;25.57;14.77;;;0.90;1.00;;;;;;4990951;28;20479;-57
2022/12/12 11:31:01;;;;;;;24.60;14.43;;;0.90;1.00;;;;;;4989130;28;20440;-57
2022/12/12 11:33:34;;;;;;;21.80;13.70;;;1.00;1.00;;;;;;4990815;28;20443;-57
2022/12/12 11:36:05;;;;;;;26.13;14.70;;;0.90;1.00;;;;;;4990989;28;20435;-57
2022/12/12 11:38:37;;;;;;;28.00;14.57;;;0.90;1.00;;;;;;4989467;28;20463;-59
2022/12/12 11:41:06;;;;;;;25.77;15.43;;;0.90;1.00;;;;;;4995757;28;20459;-58
2022/12/12 11:43:37;;;;;;;26.67;14.73;;;0.80;1.00;;;;;;5008554;28;20469;-58
2022/12/12 11:46:27;;;;;;;26.17;15.70;;;0.90;1.00;;;;;;4985778;28;20453;-57
2022/12/12 11:48:53;;;;;;;25.80;16.07;;;1.00;1.00;;;;;;4979902;28;20824;-59
2022/12/12 11:51:32;;;;;;;23.57;14.80;;;1.00;1.00;;;;;;4990780;28;20650;-59
2022/12/12 11:53:59;;;;;;;28.57;16.10;;;1.10;1.00;;;;;;4990451;28;20176;-57
2022/12/12 11:56:40;;;;;;;22.70;13.33;;;1.20;1.00;;;;;;4990814;28;20446;-59
2022/12/12 11:59:40;;;;;;;25.90;15.47;;;1.20;1.00;;;;;;4991114;28;20436;-57
2022/12/12 12:02:33;;;;;;;24.53;15.67;;;1.20;1.00;;;;;;4990778;28;20497;-58
2022/12/12 12:05:23;;;;;;;25.27;15.30;;;1.00;1.00;;;;;;4988199;28;20451;-59
2022/12/12 12:07:55;;;;;;;25.07;14.40;;;1.10;1.00;;;;;;5010365;28;20777;-59
2022/12/12 12:10:41;;;;;;;30.00;16.43;;;1.00;1.00;;;;;;5010325;28;20454;-59
2022/12/12 12:13:32;;;;;;;26.30;14.70;;;1.10;1.00;;;;;;4991077;28;20451;-59
2022/12/12 12:16:08;;;;;;;28.97;16.40;;;1.10;1.00;;;;;;4990864;28;20956;-58
2022/12/12 12:19:04;;;;;;;29.97;15.60;;;1.00;1.00;;;;;;4990521;28;20473;-60
2022/12/12 12:21:59;;;;;;;27.90;16.40;;;1.10;1.00;;;;;;4988006;28;20460;-58
2022/12/12 12:24:50;;;;;;;23.20;13.57;;;1.30;1.00;;;;;;4989411;28;20452;-59
2022/12/12 12:27:25;;;;;;;28.67;17.40;;;1.20;1.00;;;;;;4990309;28;20547;-58
2022/12/12 12:30:18;;;;;;;30.80;17.37;;;1.30;1.00;;;;;;4990535;28;20481;-60
2022/12/12 12:32:51;;;;;;;30.10;17.03;;;1.40;1.00;;;;;;4989965;28;20436;-59
2022/12/12 12:35:58;;;;;;;25.57;15.53;;;1.40;1.00;;;;;;4990134;28;20428;-59
2022/12/12 12:38:25;;;;;;;32.67;17.33;;;1.40;1.00;;;;;;4989079;28;20447;-57
2022/12/12 12:40:54;;;;;;;30.50;17.27;;;1.30;1.00;;;;;;4989238;28;20457;-59
2022/12/12 12:43:57;;;;;;;30.13;18.00;;;1.40;1.00;;;;;;4989395;28;20454;-59
2022/12/12 12:47:11;;;;;;;28.10;16.20;;;1.50;1.00;;;;;;4990439;28;20431;-58
2022/12/12 12:49:39;;;;;;;26.77;16.10;;;1.60;1.00;;;;;;4967509;28;21124;-58
2022/12/12 12:52:11;;;;;;;29.03;17.73;;;1.40;1.00;;;;;;5000339;28;20462;-58
2022/12/12 12:54:44;;;;;;;29.07;18.07;;;1.60;1.00;;;;;;4988630;28;20948;-59
2022/12/12 12:57:20;;;;;;;32.47;16.93;;;1.60;1.00;;;;;;4988693;28;20467;-60
2022/12/12 12:59:53;;;;;;;31.43;17.87;;;1.50;1.00;;;;;;4989874;28;20435;-60
2022/12/12 13:02:44;;;;;;;27.80;17.20;;;1.60;1.00;;;;;;4990027;28;20438;-61
2022/12/12 13:05:32;;;;;;;28.47;16.17;;;1.60;1.00;;;;;;4991071;28;20443;-62
2022/12/12 13:08:21;;;;;;;26.90;17.00;;;1.50;1.00;;;;;;4999690;28;20482;-60
2022/12/12 13:10:51;;;;;;;27.23;16.10;;;2.70;1.00;;;;;;4989588;28;20450;-62
2022/12/12 13:13:28;;;;;;;26.00;16.90;;;1.30;1.00;;;;;;4993142;28;20546;-61
2022/12/12 13:16:10;;;;;;;28.47;17.10;;;1.30;1.00;;;;;;4987490;28;20438;-60
2022/12/12 13:18:38;;;;;;;27.37;16.30;;;1.40;1.00;;;;;;4987967;28;20451;-61